sensor_id;sensor_type;location;lat;lon;timestamp;P1;durP1;ratioP1;P2;durP2;ratioP2
9888;SDS011;4983;42.112;24.738;2023-10-09T00:02:07;6.37;;;1.97;;
9888;SDS011;4983;42.112;24.738;2023-10-09T00:04:36;9.07;;;1.97;;
9888;SDS011;4983;42.112;24.738;2023-10-09T00:07:06;5.10;;;2.00;;
9888;SDS011;4983;42.112;24.738;2023-10-09T00:09:36;6.23;;;2.00;;
9888;SDS011;4983;42.112;24.738;2023-10-09T00:12:13;5.07;;;2.00;;
9888;SDS011;4983;42.112;24.738;2023-10-09T00:14:41;9.77;;;2.10;;
9888;SDS011;4983;42.112;24.738;2023-10-09T00:17:14;4.03;;;1.70;;
9888;SDS011;4983;42.112;24.738;2023-10-09T00:19:45;9.23;;;2.60;;
9888;SDS011;4983;42.112;24.738;2023-10-09T00:22:14;10.60;;;2.03;;
9888;SDS011;4983;42.112;24.738;2023-10-09T00:24:54;7.60;;;2.10;;
9888;SDS011;4983;42.112;24.738;2023-10-09T00:27:45;6.27;;;2.10;;
9888;SDS011;4983;42.112;24.738;2023-10-09T00:30:12;10.33;;;2.20;;
9888;SDS011;4983;42.112;24.738;2023-10-09T00:32:44;18.77;;;4.30;;
9888;SDS011;4983;42.112;24.738;2023-10-09T00:35:18;5.07;;;2.03;;
9888;SDS011;4983;42.112;24.738;2023-10-09T00:38:07;11.70;;;2.33;;
9888;SDS011;4983;42.112;24.738;2023-10-09T00:40:41;5.30;;;1.67;;
9888;SDS011;4983;42.112;24.738;2023-10-09T00:43:12;5.63;;;1.70;;
9888;SDS011;4983;42.112;24.738;2023-10-09T00:45:39;7.60;;;2.17;;
9888;SDS011;4983;42.112;24.738;2023-10-09T00:48:10;6.47;;;1.90;;
9888;SDS011;4983;42.112;24.738;2023-10-09T00:50:40;5.97;;;2.30;;
9888;SDS011;4983;42.112;24.738;2023-10-09T00:53:17;8.63;;;2.00;;
9888;SDS011;4983;42.112;24.738;2023-10-09T00:55:56;5.23;;;1.70;;
9888;SDS011;4983;42.112;24.738;2023-10-09T00:58:29;7.07;;;1.73;;
9888;SDS011;4983;42.112;24.738;2023-10-09T01:01:01;3.23;;;1.60;;
9888;SDS011;4983;42.112;24.738;2023-10-09T01:03:31;6.67;;;1.80;;
9888;SDS011;4983;42.112;24.738;2023-10-09T01:06:00;6.37;;;1.60;;
9888;SDS011;4983;42.112;24.738;2023-10-09T01:08:41;4.60;;;1.83;;
9888;SDS011;4983;42.112;24.738;2023-10-09T01:11:14;3.67;;;1.43;;
9888;SDS011;4983;42.112;24.738;2023-10-09T01:13:47;4.20;;;1.73;;
9888;SDS011;4983;42.112;24.738;2023-10-09T01:16:35;4.73;;;1.50;;
9888;SDS011;4983;42.112;24.738;2023-10-09T01:19:03;3.40;;;1.40;;
9888;SDS011;4983;42.112;24.738;2023-10-09T01:21:39;5.07;;;1.57;;
9888;SDS011;4983;42.112;24.738;2023-10-09T01:24:07;3.23;;;1.40;;
9888;SDS011;4983;42.112;24.738;2023-10-09T01:26:35;5.13;;;1.47;;
9888;SDS011;4983;42.112;24.738;2023-10-09T01:29:09;5.23;;;1.30;;
9888;SDS011;4983;42.112;24.738;2023-10-09T01:31:40;4.33;;;1.50;;
9888;SDS011;4983;42.112;24.738;2023-10-09T01:34:12;2.87;;;1.70;;
9888;SDS011;4983;42.112;24.738;2023-10-09T01:36:40;2.93;;;1.50;;
9888;SDS011;4983;42.112;24.738;2023-10-09T01:39:09;2.73;;;1.20;;
9888;SDS011;4983;42.112;24.738;2023-10-09T01:41:49;9.37;;;1.60;;
9888;SDS011;4983;42.112;24.738;2023-10-09T01:44:23;4.63;;;1.30;;
9888;SDS011;4983;42.112;24.738;2023-10-09T01:46:51;4.17;;;1.60;;
9888;SDS011;4983;42.112;24.738;2023-10-09T01:49:20;3.73;;;1.40;;
9888;SDS011;4983;42.112;24.738;2023-10-09T01:51:55;3.70;;;1.80;;
9888;SDS011;4983;42.112;24.738;2023-10-09T01:54:28;2.83;;;1.37;;
9888;SDS011;4983;42.112;24.738;2023-10-09T01:57:02;2.40;;;1.40;;
9888;SDS011;4983;42.112;24.738;2023-10-09T01:59:35;5.70;;;1.60;;
9888;SDS011;4983;42.112;24.738;2023-10-09T02:02:03;5.97;;;2.10;;
9888;SDS011;4983;42.112;24.738;2023-10-09T02:04:39;4.10;;;1.50;;
9888;SDS011;4983;42.112;24.738;2023-10-09T02:07:07;2.57;;;1.50;;
9888;SDS011;4983;42.112;24.738;2023-10-09T02:09:35;5.20;;;1.53;;
9888;SDS011;4983;42.112;24.738;2023-10-09T02:12:10;3.63;;;1.40;;
9888;SDS011;4983;42.112;24.738;2023-10-09T02:14:38;4.73;;;2.00;;
9888;SDS011;4983;42.112;24.738;2023-10-09T02:17:07;1.73;;;1.30;;
9888;SDS011;4983;42.112;24.738;2023-10-09T02:19:43;4.43;;;1.87;;
9888;SDS011;4983;42.112;24.738;2023-10-09T02:22:15;7.33;;;1.80;;
9888;SDS011;4983;42.112;24.738;2023-10-09T02:24:45;3.30;;;1.67;;
9888;SDS011;4983;42.112;24.738;2023-10-09T02:27:24;5.23;;;1.87;;
9888;SDS011;4983;42.112;24.738;2023-10-09T02:30:11;10.30;;;1.80;;
9888;SDS011;4983;42.112;24.738;2023-10-09T02:32:52;8.10;;;1.80;;
9888;SDS011;4983;42.112;24.738;2023-10-09T02:35:32;5.53;;;1.37;;
9888;SDS011;4983;42.112;24.738;2023-10-09T02:38:04;6.80;;;1.60;;
9888;SDS011;4983;42.112;24.738;2023-10-09T02:40:41;4.57;;;1.40;;
9888;SDS011;4983;42.112;24.738;2023-10-09T02:43:26;10.47;;;1.73;;
9888;SDS011;4983;42.112;24.738;2023-10-09T02:45:56;5.90;;;1.60;;
9888;SDS011;4983;42.112;24.738;2023-10-09T02:48:24;5.87;;;1.53;;
9888;SDS011;4983;42.112;24.738;2023-10-09T02:50:55;9.77;;;1.90;;
9888;SDS011;4983;42.112;24.738;2023-10-09T02:53:22;13.20;;;2.43;;
9888;SDS011;4983;42.112;24.738;2023-10-09T02:55:56;8.07;;;1.50;;
9888;SDS011;4983;42.112;24.738;2023-10-09T02:58:37;12.50;;;1.80;;
9888;SDS011;4983;42.112;24.738;2023-10-09T03:01:09;6.00;;;1.20;;
9888;SDS011;4983;42.112;24.738;2023-10-09T03:03:39;4.73;;;1.50;;
9888;SDS011;4983;42.112;24.738;2023-10-09T03:06:06;4.23;;;1.40;;
9888;SDS011;4983;42.112;24.738;2023-10-09T03:08:37;9.17;;;1.63;;
9888;SDS011;4983;42.112;24.738;2023-10-09T03:11:05;5.10;;;1.37;;
9888;SDS011;4983;42.112;24.738;2023-10-09T03:13:40;6.47;;;1.33;;
9888;SDS011;4983;42.112;24.738;2023-10-09T03:16:10;3.83;;;1.50;;
9888;SDS011;4983;42.112;24.738;2023-10-09T03:18:44;6.67;;;1.47;;
9888;SDS011;4983;42.112;24.738;2023-10-09T03:21:12;3.70;;;1.00;;
9888;SDS011;4983;42.112;24.738;2023-10-09T03:23:39;2.87;;;1.10;;
9888;SDS011;4983;42.112;24.738;2023-10-09T03:26:08;4.80;;;1.23;;
9888;SDS011;4983;42.112;24.738;2023-10-09T03:28:36;5.57;;;1.67;;
9888;SDS011;4983;42.112;24.738;2023-10-09T03:31:03;9.80;;;1.60;;
9888;SDS011;4983;42.112;24.738;2023-10-09T03:33:32;12.80;;;1.90;;
9888;SDS011;4983;42.112;24.738;2023-10-09T03:36:00;10.70;;;1.40;;
9888;SDS011;4983;42.112;24.738;2023-10-09T03:38:28;10.73;;;1.53;;
9888;SDS011;4983;42.112;24.738;2023-10-09T03:41:00;5.07;;;1.50;;
9888;SDS011;4983;42.112;24.738;2023-10-09T03:43:33;6.93;;;1.30;;
9888;SDS011;4983;42.112;24.738;2023-10-09T03:46:03;9.90;;;1.33;;
9888;SDS011;4983;42.112;24.738;2023-10-09T03:48:40;4.10;;;1.23;;
9888;SDS011;4983;42.112;24.738;2023-10-09T03:51:11;23.33;;;2.90;;
9888;SDS011;4983;42.112;24.738;2023-10-09T03:53:41;3.73;;;1.20;;
9888;SDS011;4983;42.112;24.738;2023-10-09T03:56:08;7.37;;;1.20;;
9888;SDS011;4983;42.112;24.738;2023-10-09T03:58:40;4.53;;;1.40;;
9888;SDS011;4983;42.112;24.738;2023-10-09T04:01:11;7.27;;;1.33;;
9888;SDS011;4983;42.112;24.738;2023-10-09T04:03:48;2.13;;;1.33;;
9888;SDS011;4983;42.112;24.738;2023-10-09T04:06:20;18.33;;;3.23;;
9888;SDS011;4983;42.112;24.738;2023-10-09T04:08:48;5.27;;;1.30;;
9888;SDS011;4983;42.112;24.738;2023-10-09T04:11:16;5.23;;;1.50;;
9888;SDS011;4983;42.112;24.738;2023-10-09T04:13:49;3.40;;;1.40;;
9888;SDS011;4983;42.112;24.738;2023-10-09T04:16:18;7.50;;;1.40;;
9888;SDS011;4983;42.112;24.738;2023-10-09T04:19:01;5.07;;;1.20;;
9888;SDS011;4983;42.112;24.738;2023-10-09T04:21:36;8.53;;;1.57;;
9888;SDS011;4983;42.112;24.738;2023-10-09T04:24:04;6.53;;;1.73;;
9888;SDS011;4983;42.112;24.738;2023-10-09T04:26:50;4.57;;;1.40;;
9888;SDS011;4983;42.112;24.738;2023-10-09T04:29:23;3.17;;;1.27;;
9888;SDS011;4983;42.112;24.738;2023-10-09T04:31:52;12.27;;;2.23;;
9888;SDS011;4983;42.112;24.738;2023-10-09T04:34:20;13.30;;;1.93;;
9888;SDS011;4983;42.112;24.738;2023-10-09T04:37:00;5.80;;;1.70;;
9888;SDS011;4983;42.112;24.738;2023-10-09T04:39:45;13.43;;;1.73;;
9888;SDS011;4983;42.112;24.738;2023-10-09T04:42:15;12.40;;;2.10;;
9888;SDS011;4983;42.112;24.738;2023-10-09T04:45:01;3.57;;;1.30;;
9888;SDS011;4983;42.112;24.738;2023-10-09T04:48:01;12.50;;;1.97;;
9888;SDS011;4983;42.112;24.738;2023-10-09T04:50:33;2.37;;;1.07;;
9888;SDS011;4983;42.112;24.738;2023-10-09T04:53:02;8.93;;;1.47;;
9888;SDS011;4983;42.112;24.738;2023-10-09T04:55:47;6.30;;;1.47;;
9888;SDS011;4983;42.112;24.738;2023-10-09T04:58:19;5.90;;;1.30;;
9888;SDS011;4983;42.112;24.738;2023-10-09T05:00:52;7.60;;;1.60;;
9888;SDS011;4983;42.112;24.738;2023-10-09T05:03:38;4.57;;;1.20;;
9888;SDS011;4983;42.112;24.738;2023-10-09T05:06:18;7.87;;;1.70;;
9888;SDS011;4983;42.112;24.738;2023-10-09T05:09:10;6.33;;;1.60;;
9888;SDS011;4983;42.112;24.738;2023-10-09T05:11:41;12.60;;;1.57;;
9888;SDS011;4983;42.112;24.738;2023-10-09T05:14:20;11.07;;;1.90;;
9888;SDS011;4983;42.112;24.738;2023-10-09T05:17:04;7.70;;;1.90;;
9888;SDS011;4983;42.112;24.738;2023-10-09T05:19:34;15.80;;;2.23;;
9888;SDS011;4983;42.112;24.738;2023-10-09T05:22:19;12.43;;;1.53;;
9888;SDS011;4983;42.112;24.738;2023-10-09T05:25:01;3.50;;;1.20;;
9888;SDS011;4983;42.112;24.738;2023-10-09T05:27:28;6.87;;;1.70;;
9888;SDS011;4983;42.112;24.738;2023-10-09T05:30:09;2.90;;;1.60;;
9888;SDS011;4983;42.112;24.738;2023-10-09T05:32:51;7.00;;;1.90;;
9888;SDS011;4983;42.112;24.738;2023-10-09T05:35:21;8.73;;;1.70;;
9888;SDS011;4983;42.112;24.738;2023-10-09T05:38:07;3.67;;;1.40;;
9888;SDS011;4983;42.112;24.738;2023-10-09T05:40:48;4.17;;;1.30;;
9888;SDS011;4983;42.112;24.738;2023-10-09T05:43:19;42.43;;;5.00;;
9888;SDS011;4983;42.112;24.738;2023-10-09T05:46:01;17.20;;;2.10;;
9888;SDS011;4983;42.112;24.738;2023-10-09T05:48:35;4.87;;;1.33;;
9888;SDS011;4983;42.112;24.738;2023-10-09T05:51:20;4.03;;;1.50;;
9888;SDS011;4983;42.112;24.738;2023-10-09T05:54:01;10.57;;;1.77;;
9888;SDS011;4983;42.112;24.738;2023-10-09T05:56:54;6.87;;;2.27;;
9888;SDS011;4983;42.112;24.738;2023-10-09T05:59:55;4.40;;;2.27;;
9888;SDS011;4983;42.112;24.738;2023-10-09T06:02:39;9.20;;;2.73;;
9888;SDS011;4983;42.112;24.738;2023-10-09T06:05:27;5.37;;;2.60;;
9888;SDS011;4983;42.112;24.738;2023-10-09T06:08:27;14.97;;;3.23;;
9888;SDS011;4983;42.112;24.738;2023-10-09T06:11:25;12.80;;;3.17;;
9888;SDS011;4983;42.112;24.738;2023-10-09T06:14:07;15.33;;;3.57;;
9888;SDS011;4983;42.112;24.738;2023-10-09T06:16:40;9.10;;;3.40;;
9888;SDS011;4983;42.112;24.738;2023-10-09T06:19:06;10.40;;;3.30;;
9888;SDS011;4983;42.112;24.738;2023-10-09T06:21:39;8.40;;;3.03;;
9888;SDS011;4983;42.112;24.738;2023-10-09T06:24:26;9.53;;;3.20;;
9888;SDS011;4983;42.112;24.738;2023-10-09T06:26:58;13.23;;;3.07;;
9888;SDS011;4983;42.112;24.738;2023-10-09T06:29:39;11.70;;;3.50;;
9888;SDS011;4983;42.112;24.738;2023-10-09T06:32:21;24.77;;;5.23;;
9888;SDS011;4983;42.112;24.738;2023-10-09T06:35:02;7.87;;;2.40;;
9888;SDS011;4983;42.112;24.738;2023-10-09T06:37:42;13.03;;;2.87;;
9888;SDS011;4983;42.112;24.738;2023-10-09T06:40:23;9.53;;;2.87;;
9888;SDS011;4983;42.112;24.738;2023-10-09T06:43:07;10.67;;;2.63;;
9888;SDS011;4983;42.112;24.738;2023-10-09T06:45:42;4.43;;;2.23;;
9888;SDS011;4983;42.112;24.738;2023-10-09T06:48:20;5.57;;;1.90;;
9888;SDS011;4983;42.112;24.738;2023-10-09T06:51:05;4.80;;;2.50;;
9888;SDS011;4983;42.112;24.738;2023-10-09T06:53:40;11.43;;;3.10;;
9888;SDS011;4983;42.112;24.738;2023-10-09T06:56:20;4.80;;;2.20;;
9888;SDS011;4983;42.112;24.738;2023-10-09T06:58:55;9.23;;;2.70;;
9888;SDS011;4983;42.112;24.738;2023-10-09T07:01:24;12.13;;;3.03;;
9888;SDS011;4983;42.112;24.738;2023-10-09T07:04:04;7.90;;;3.10;;
9888;SDS011;4983;42.112;24.738;2023-10-09T07:06:43;8.93;;;2.60;;
9888;SDS011;4983;42.112;24.738;2023-10-09T07:09:19;8.20;;;3.00;;
9888;SDS011;4983;42.112;24.738;2023-10-09T07:11:46;5.50;;;2.40;;
9888;SDS011;4983;42.112;24.738;2023-10-09T07:14:25;6.00;;;2.70;;
9888;SDS011;4983;42.112;24.738;2023-10-09T07:17:10;4.53;;;2.60;;
9888;SDS011;4983;42.112;24.738;2023-10-09T07:19:47;12.73;;;3.53;;
9888;SDS011;4983;42.112;24.738;2023-10-09T07:22:31;7.37;;;4.30;;
9888;SDS011;4983;42.112;24.738;2023-10-09T07:25:07;10.13;;;3.40;;
9888;SDS011;4983;42.112;24.738;2023-10-09T07:27:53;6.90;;;2.70;;
9888;SDS011;4983;42.112;24.738;2023-10-09T07:30:21;12.70;;;3.20;;
9888;SDS011;4983;42.112;24.738;2023-10-09T07:33:04;6.67;;;3.20;;
9888;SDS011;4983;42.112;24.738;2023-10-09T07:35:42;7.50;;;2.73;;
9888;SDS011;4983;42.112;24.738;2023-10-09T07:38:15;21.80;;;4.37;;
9888;SDS011;4983;42.112;24.738;2023-10-09T07:40:46;6.67;;;2.50;;
9888;SDS011;4983;42.112;24.738;2023-10-09T07:43:21;6.07;;;2.10;;
9888;SDS011;4983;42.112;24.738;2023-10-09T07:45:52;7.83;;;2.67;;
9888;SDS011;4983;42.112;24.738;2023-10-09T07:48:36;9.57;;;3.23;;
9888;SDS011;4983;42.112;24.738;2023-10-09T07:51:14;9.83;;;3.30;;
9888;SDS011;4983;42.112;24.738;2023-10-09T07:53:41;7.07;;;2.83;;
9888;SDS011;4983;42.112;24.738;2023-10-09T07:56:16;13.77;;;3.67;;
9888;SDS011;4983;42.112;24.738;2023-10-09T07:58:46;7.97;;;3.10;;
9888;SDS011;4983;42.112;24.738;2023-10-09T08:01:14;6.67;;;3.03;;
9888;SDS011;4983;42.112;24.738;2023-10-09T08:04:01;7.40;;;3.17;;
9888;SDS011;4983;42.112;24.738;2023-10-09T08:06:30;5.50;;;3.20;;
9888;SDS011;4983;42.112;24.738;2023-10-09T08:09:09;10.33;;;3.50;;
9888;SDS011;4983;42.112;24.738;2023-10-09T08:11:54;5.57;;;3.07;;
9888;SDS011;4983;42.112;24.738;2023-10-09T08:15:00;10.60;;;3.43;;
9888;SDS011;4983;42.112;24.738;2023-10-09T08:17:46;6.63;;;3.13;;
9888;SDS011;4983;42.112;24.738;2023-10-09T08:20:16;6.40;;;3.10;;
9888;SDS011;4983;42.112;24.738;2023-10-09T08:22:51;6.20;;;2.80;;
9888;SDS011;4983;42.112;24.738;2023-10-09T08:25:18;8.93;;;3.63;;
9888;SDS011;4983;42.112;24.738;2023-10-09T08:27:58;10.80;;;3.73;;
9888;SDS011;4983;42.112;24.738;2023-10-09T08:30:40;4.50;;;3.07;;
9888;SDS011;4983;42.112;24.738;2023-10-09T08:33:28;10.67;;;3.23;;
9888;SDS011;4983;42.112;24.738;2023-10-09T08:36:06;4.60;;;2.80;;
9888;SDS011;4983;42.112;24.738;2023-10-09T08:38:34;9.40;;;2.77;;
9888;SDS011;4983;42.112;24.738;2023-10-09T08:41:08;5.13;;;2.80;;
9888;SDS011;4983;42.112;24.738;2023-10-09T08:43:48;7.93;;;3.00;;
9888;SDS011;4983;42.112;24.738;2023-10-09T08:46:22;7.60;;;2.60;;
9888;SDS011;4983;42.112;24.738;2023-10-09T08:48:52;4.87;;;2.67;;
9888;SDS011;4983;42.112;24.738;2023-10-09T08:51:21;3.93;;;2.57;;
9888;SDS011;4983;42.112;24.738;2023-10-09T08:53:50;6.30;;;2.60;;
9888;SDS011;4983;42.112;24.738;2023-10-09T08:56:18;14.37;;;4.30;;
9888;SDS011;4983;42.112;24.738;2023-10-09T08:58:50;8.87;;;3.70;;
9888;SDS011;4983;42.112;24.738;2023-10-09T09:01:19;16.53;;;3.83;;
9888;SDS011;4983;42.112;24.738;2023-10-09T09:03:47;13.03;;;3.80;;
9888;SDS011;4983;42.112;24.738;2023-10-09T09:06:15;6.83;;;3.40;;
9888;SDS011;4983;42.112;24.738;2023-10-09T09:08:44;8.80;;;2.90;;
9888;SDS011;4983;42.112;24.738;2023-10-09T09:11:12;8.93;;;3.20;;
9888;SDS011;4983;42.112;24.738;2023-10-09T09:13:42;6.27;;;2.80;;
9888;SDS011;4983;42.112;24.738;2023-10-09T09:16:19;4.03;;;2.70;;
9888;SDS011;4983;42.112;24.738;2023-10-09T09:18:50;8.73;;;3.07;;
9888;SDS011;4983;42.112;24.738;2023-10-09T09:21:30;7.03;;;2.50;;
9888;SDS011;4983;42.112;24.738;2023-10-09T09:24:04;19.13;;;4.17;;
9888;SDS011;4983;42.112;24.738;2023-10-09T09:26:41;4.37;;;2.53;;
9888;SDS011;4983;42.112;24.738;2023-10-09T09:29:11;6.37;;;3.00;;
9888;SDS011;4983;42.112;24.738;2023-10-09T09:31:51;11.57;;;3.13;;
9888;SDS011;4983;42.112;24.738;2023-10-09T09:34:19;11.73;;;3.50;;
9888;SDS011;4983;42.112;24.738;2023-10-09T09:36:53;7.17;;;3.07;;
9888;SDS011;4983;42.112;24.738;2023-10-09T09:39:21;6.00;;;2.73;;
9888;SDS011;4983;42.112;24.738;2023-10-09T09:41:56;8.17;;;2.70;;
9888;SDS011;4983;42.112;24.738;2023-10-09T09:44:32;6.57;;;2.60;;
9888;SDS011;4983;42.112;24.738;2023-10-09T09:47:09;8.33;;;2.80;;
9888;SDS011;4983;42.112;24.738;2023-10-09T09:49:42;8.77;;;2.67;;
9888;SDS011;4983;42.112;24.738;2023-10-09T09:52:10;6.53;;;3.40;;
9888;SDS011;4983;42.112;24.738;2023-10-09T09:54:38;5.40;;;2.80;;
9888;SDS011;4983;42.112;24.738;2023-10-09T09:57:07;3.87;;;2.57;;
9888;SDS011;4983;42.112;24.738;2023-10-09T09:59:39;13.80;;;2.83;;
9888;SDS011;4983;42.112;24.738;2023-10-09T10:02:18;6.37;;;2.50;;
9888;SDS011;4983;42.112;24.738;2023-10-09T10:04:51;4.73;;;2.03;;
9888;SDS011;4983;42.112;24.738;2023-10-09T10:07:22;16.30;;;2.73;;
9888;SDS011;4983;42.112;24.738;2023-10-09T10:09:51;13.67;;;3.70;;
9888;SDS011;4983;42.112;24.738;2023-10-09T10:12:49;2.97;;;2.23;;
9888;SDS011;4983;42.112;24.738;2023-10-09T10:18:23;3.50;;;2.30;;
9888;SDS011;4983;42.112;24.738;2023-10-09T10:21:07;7.47;;;2.43;;
9888;SDS011;4983;42.112;24.738;2023-10-09T10:23:39;4.07;;;2.63;;
9888;SDS011;4983;42.112;24.738;2023-10-09T10:26:16;6.23;;;2.40;;
9888;SDS011;4983;42.112;24.738;2023-10-09T10:31:54;6.23;;;2.43;;
9888;SDS011;4983;42.112;24.738;2023-10-09T10:34:24;11.53;;;2.10;;
9888;SDS011;4983;42.112;24.738;2023-10-09T10:36:52;5.10;;;2.20;;
9888;SDS011;4983;42.112;24.738;2023-10-09T10:39:25;8.87;;;2.40;;
9888;SDS011;4983;42.112;24.738;2023-10-09T10:42:10;4.97;;;2.10;;
9888;SDS011;4983;42.112;24.738;2023-10-09T10:44:59;4.80;;;2.30;;
9888;SDS011;4983;42.112;24.738;2023-10-09T10:47:28;27.57;;;4.23;;
9888;SDS011;4983;42.112;24.738;2023-10-09T10:50:00;3.60;;;1.93;;
9888;SDS011;4983;42.112;24.738;2023-10-09T10:52:46;4.03;;;2.23;;
9888;SDS011;4983;42.112;24.738;2023-10-09T10:55:23;8.17;;;2.30;;
9888;SDS011;4983;42.112;24.738;2023-10-09T10:58:17;5.20;;;2.13;;
9888;SDS011;4983;42.112;24.738;2023-10-09T11:00:53;10.57;;;2.30;;
9888;SDS011;4983;42.112;24.738;2023-10-09T11:03:37;8.33;;;1.97;;
9888;SDS011;4983;42.112;24.738;2023-10-09T11:06:30;11.00;;;2.30;;
9888;SDS011;4983;42.112;24.738;2023-10-09T11:09:08;9.87;;;2.60;;
9888;SDS011;4983;42.112;24.738;2023-10-09T11:11:35;7.67;;;2.60;;
9888;SDS011;4983;42.112;24.738;2023-10-09T11:14:08;6.43;;;2.00;;
9888;SDS011;4983;42.112;24.738;2023-10-09T11:16:39;4.00;;;1.97;;
9888;SDS011;4983;42.112;24.738;2023-10-09T11:19:08;4.73;;;1.90;;
9888;SDS011;4983;42.112;24.738;2023-10-09T11:21:50;11.47;;;2.23;;
9888;SDS011;4983;42.112;24.738;2023-10-09T11:24:45;4.03;;;1.97;;
9888;SDS011;4983;42.112;24.738;2023-10-09T11:27:25;4.20;;;1.77;;
9888;SDS011;4983;42.112;24.738;2023-10-09T11:29:57;4.53;;;2.00;;
9888;SDS011;4983;42.112;24.738;2023-10-09T11:32:37;4.90;;;1.83;;
9888;SDS011;4983;42.112;24.738;2023-10-09T11:35:10;4.97;;;1.80;;
9888;SDS011;4983;42.112;24.738;2023-10-09T11:37:44;14.10;;;3.40;;
9888;SDS011;4983;42.112;24.738;2023-10-09T11:40:29;5.93;;;1.90;;
9888;SDS011;4983;42.112;24.738;2023-10-09T11:43:08;8.07;;;2.07;;
9888;SDS011;4983;42.112;24.738;2023-10-09T11:45:39;12.00;;;3.27;;
9888;SDS011;4983;42.112;24.738;2023-10-09T11:48:19;4.33;;;1.90;;
9888;SDS011;4983;42.112;24.738;2023-10-09T11:50:53;6.33;;;1.80;;
9888;SDS011;4983;42.112;24.738;2023-10-09T11:53:41;6.40;;;1.90;;
9888;SDS011;4983;42.112;24.738;2023-10-09T11:56:08;3.47;;;1.80;;
9888;SDS011;4983;42.112;24.738;2023-10-09T11:58:39;7.03;;;1.80;;
9888;SDS011;4983;42.112;24.738;2023-10-09T12:01:10;3.73;;;2.20;;
9888;SDS011;4983;42.112;24.738;2023-10-09T12:03:42;4.63;;;2.00;;
9888;SDS011;4983;42.112;24.738;2023-10-09T12:06:14;3.87;;;1.63;;
9888;SDS011;4983;42.112;24.738;2023-10-09T12:08:45;4.17;;;1.77;;
9888;SDS011;4983;42.112;24.738;2023-10-09T12:11:13;7.43;;;1.70;;
9888;SDS011;4983;42.112;24.738;2023-10-09T12:13:41;2.73;;;1.50;;
9888;SDS011;4983;42.112;24.738;2023-10-09T12:16:08;3.57;;;1.70;;
9888;SDS011;4983;42.112;24.738;2023-10-09T12:18:37;5.47;;;2.00;;
9888;SDS011;4983;42.112;24.738;2023-10-09T12:21:04;4.83;;;1.90;;
9888;SDS011;4983;42.112;24.738;2023-10-09T12:23:32;15.90;;;2.70;;
9888;SDS011;4983;42.112;24.738;2023-10-09T12:26:03;12.17;;;2.83;;
9888;SDS011;4983;42.112;24.738;2023-10-09T12:28:32;10.13;;;2.10;;
9888;SDS011;4983;42.112;24.738;2023-10-09T12:30:59;9.57;;;2.37;;
9888;SDS011;4983;42.112;24.738;2023-10-09T12:33:28;8.17;;;2.17;;
9888;SDS011;4983;42.112;24.738;2023-10-09T12:35:55;5.07;;;2.20;;
9888;SDS011;4983;42.112;24.738;2023-10-09T12:38:25;10.23;;;2.37;;
9888;SDS011;4983;42.112;24.738;2023-10-09T12:41:01;6.17;;;2.20;;
9888;SDS011;4983;42.112;24.738;2023-10-09T12:43:33;13.13;;;2.27;;
9888;SDS011;4983;42.112;24.738;2023-10-09T12:46:04;6.93;;;2.50;;
9888;SDS011;4983;42.112;24.738;2023-10-09T12:48:32;4.73;;;2.30;;
9888;SDS011;4983;42.112;24.738;2023-10-09T12:51:00;6.10;;;2.23;;
9888;SDS011;4983;42.112;24.738;2023-10-09T12:53:32;2.93;;;2.00;;
9888;SDS011;4983;42.112;24.738;2023-10-09T12:55:59;52.77;;;6.00;;
9888;SDS011;4983;42.112;24.738;2023-10-09T12:58:29;31.60;;;5.10;;
9888;SDS011;4983;42.112;24.738;2023-10-09T13:00:56;8.30;;;2.20;;
9888;SDS011;4983;42.112;24.738;2023-10-09T13:03:34;11.03;;;2.20;;
9888;SDS011;4983;42.112;24.738;2023-10-09T13:06:05;46.47;;;6.10;;
9888;SDS011;4983;42.112;24.738;2023-10-09T13:08:35;5.47;;;2.13;;
9888;SDS011;4983;42.112;24.738;2023-10-09T13:11:06;5.73;;;2.10;;
9888;SDS011;4983;42.112;24.738;2023-10-09T13:13:39;7.77;;;2.30;;
9888;SDS011;4983;42.112;24.738;2023-10-09T13:16:08;6.47;;;2.20;;
9888;SDS011;4983;42.112;24.738;2023-10-09T13:18:39;7.47;;;2.00;;
9888;SDS011;4983;42.112;24.738;2023-10-09T13:21:06;7.80;;;2.10;;
9888;SDS011;4983;42.112;24.738;2023-10-09T13:23:34;7.83;;;2.10;;
9888;SDS011;4983;42.112;24.738;2023-10-09T13:26:07;10.17;;;2.10;;
9888;SDS011;4983;42.112;24.738;2023-10-09T13:28:48;3.57;;;1.87;;
9888;SDS011;4983;42.112;24.738;2023-10-09T13:31:16;6.23;;;2.00;;
9888;SDS011;4983;42.112;24.738;2023-10-09T13:33:43;8.60;;;2.40;;
9888;SDS011;4983;42.112;24.738;2023-10-09T13:36:12;14.17;;;3.10;;
9888;SDS011;4983;42.112;24.738;2023-10-09T13:38:44;6.13;;;2.17;;
9888;SDS011;4983;42.112;24.738;2023-10-09T13:41:12;15.53;;;2.40;;
9888;SDS011;4983;42.112;24.738;2023-10-09T13:43:43;11.03;;;3.07;;
9888;SDS011;4983;42.112;24.738;2023-10-09T13:46:12;5.77;;;1.90;;
9888;SDS011;4983;42.112;24.738;2023-10-09T13:48:43;10.60;;;2.20;;
9888;SDS011;4983;42.112;24.738;2023-10-09T13:51:12;9.43;;;2.10;;
9888;SDS011;4983;42.112;24.738;2023-10-09T13:53:42;9.03;;;2.53;;
9888;SDS011;4983;42.112;24.738;2023-10-09T13:56:13;3.37;;;1.80;;
9888;SDS011;4983;42.112;24.738;2023-10-09T13:58:44;5.40;;;2.00;;
9888;SDS011;4983;42.112;24.738;2023-10-09T14:01:14;4.07;;;2.00;;
9888;SDS011;4983;42.112;24.738;2023-10-09T14:03:53;7.37;;;2.30;;
9888;SDS011;4983;42.112;24.738;2023-10-09T14:06:21;35.47;;;4.13;;
9888;SDS011;4983;42.112;24.738;2023-10-09T14:08:56;17.13;;;2.60;;
9888;SDS011;4983;42.112;24.738;2023-10-09T14:11:24;20.30;;;2.53;;
9888;SDS011;4983;42.112;24.738;2023-10-09T14:13:51;9.00;;;2.73;;
9888;SDS011;4983;42.112;24.738;2023-10-09T14:16:20;15.53;;;3.07;;
9888;SDS011;4983;42.112;24.738;2023-10-09T14:18:54;18.27;;;3.07;;
9888;SDS011;4983;42.112;24.738;2023-10-09T14:21:24;4.20;;;1.83;;
9888;SDS011;4983;42.112;24.738;2023-10-09T14:23:53;8.87;;;2.43;;
9888;SDS011;4983;42.112;24.738;2023-10-09T14:26:26;18.67;;;3.07;;
9888;SDS011;4983;42.112;24.738;2023-10-09T14:28:54;4.80;;;1.93;;
9888;SDS011;4983;42.112;24.738;2023-10-09T14:31:25;7.90;;;2.80;;
9888;SDS011;4983;42.112;24.738;2023-10-09T14:33:53;5.00;;;1.90;;
9888;SDS011;4983;42.112;24.738;2023-10-09T14:36:21;9.37;;;2.67;;
9888;SDS011;4983;42.112;24.738;2023-10-09T14:38:52;13.73;;;2.90;;
9888;SDS011;4983;42.112;24.738;2023-10-09T14:41:20;5.63;;;2.23;;
9888;SDS011;4983;42.112;24.738;2023-10-09T14:43:49;6.97;;;2.30;;
9888;SDS011;4983;42.112;24.738;2023-10-09T14:46:17;24.83;;;3.07;;
9888;SDS011;4983;42.112;24.738;2023-10-09T14:48:51;17.80;;;3.07;;
9888;SDS011;4983;42.112;24.738;2023-10-09T14:51:22;13.87;;;2.70;;
9888;SDS011;4983;42.112;24.738;2023-10-09T14:53:56;7.10;;;2.10;;
9888;SDS011;4983;42.112;24.738;2023-10-09T14:56:24;11.43;;;2.60;;
9888;SDS011;4983;42.112;24.738;2023-10-09T14:58:55;24.83;;;3.50;;
9888;SDS011;4983;42.112;24.738;2023-10-09T15:01:23;8.07;;;2.00;;
9888;SDS011;4983;42.112;24.738;2023-10-09T15:03:56;12.50;;;2.10;;
9888;SDS011;4983;42.112;24.738;2023-10-09T15:06:25;26.10;;;4.00;;
9888;SDS011;4983;42.112;24.738;2023-10-09T15:08:55;8.93;;;2.40;;
9888;SDS011;4983;42.112;24.738;2023-10-09T15:11:23;5.90;;;2.63;;
9888;SDS011;4983;42.112;24.738;2023-10-09T15:13:51;8.60;;;2.53;;
9888;SDS011;4983;42.112;24.738;2023-10-09T15:16:19;10.93;;;3.50;;
9888;SDS011;4983;42.112;24.738;2023-10-09T15:18:52;45.20;;;5.90;;
9888;SDS011;4983;42.112;24.738;2023-10-09T15:21:23;20.83;;;5.20;;
9888;SDS011;4983;42.112;24.738;2023-10-09T15:23:52;11.23;;;3.33;;
9888;SDS011;4983;42.112;24.738;2023-10-09T15:26:20;10.63;;;3.80;;
9888;SDS011;4983;42.112;24.738;2023-10-09T15:28:49;23.97;;;5.47;;
9888;SDS011;4983;42.112;24.738;2023-10-09T15:31:17;16.93;;;5.53;;
9888;SDS011;4983;42.112;24.738;2023-10-09T15:33:46;42.60;;;6.93;;
9888;SDS011;4983;42.112;24.738;2023-10-09T15:36:17;19.10;;;6.20;;
9888;SDS011;4983;42.112;24.738;2023-10-09T15:38:47;19.60;;;5.90;;
9888;SDS011;4983;42.112;24.738;2023-10-09T15:41:15;12.37;;;5.50;;
9888;SDS011;4983;42.112;24.738;2023-10-09T15:43:44;14.77;;;5.10;;
9888;SDS011;4983;42.112;24.738;2023-10-09T15:46:12;16.77;;;5.20;;